createdAt,value
2023-02-05T00:00:51.611Z,6.00
2023-02-05T00:03:19.789Z,5.90
2023-02-05T00:05:47.785Z,4.60
2023-02-05T00:08:15.844Z,5.60
2023-02-05T00:10:44.113Z,4.80
2023-02-05T00:13:12.572Z,4.00
2023-02-05T00:15:40.934Z,5.30
2023-02-05T00:18:09.724Z,6.90
2023-02-05T00:20:38.006Z,4.70
2023-02-05T00:23:06.322Z,4.90
2023-02-05T00:25:34.711Z,4.10
2023-02-05T00:28:03.328Z,4.10
2023-02-05T00:30:32.270Z,6.60
2023-02-05T00:33:00.434Z,6.10
2023-02-05T00:35:30.233Z,6.00
2023-02-05T00:37:58.314Z,6.10
2023-02-05T00:40:26.668Z,7.90
2023-02-05T00:42:54.680Z,7.00
2023-02-05T00:45:22.925Z,5.30
2023-02-05T00:47:50.894Z,6.20
2023-02-05T00:50:19.074Z,6.50
2023-02-05T00:52:47.059Z,5.10
2023-02-05T00:55:15.305Z,6.80
2023-02-05T00:57:43.346Z,7.20
2023-02-05T01:00:12.447Z,4.90
2023-02-05T01:02:41.659Z,6.80
2023-02-05T01:05:09.844Z,6.00
2023-02-05T01:07:38.430Z,5.70
2023-02-05T01:10:07.808Z,5.40
2023-02-05T01:12:36.014Z,4.70
2023-02-05T01:15:06.261Z,6.20
2023-02-05T01:17:34.712Z,5.60
2023-02-05T01:20:03.196Z,5.10
2023-02-05T01:22:32.289Z,5.80
2023-02-05T01:25:00.500Z,5.50
2023-02-05T01:27:28.536Z,7.90
2023-02-05T01:29:57.123Z,4.30
2023-02-05T01:32:25.299Z,5.60
2023-02-05T01:34:53.266Z,5.40
2023-02-05T01:37:21.748Z,6.40
2023-02-05T01:39:52.138Z,5.10
2023-02-05T01:42:22.936Z,4.20
2023-02-05T01:45:23.576Z,5.70
2023-02-05T01:47:53.054Z,5.60
2023-02-05T01:50:27.256Z,7.00
2023-02-05T01:52:55.912Z,7.10
2023-02-05T01:55:24.391Z,5.10
2023-02-05T01:57:52.515Z,5.90
2023-02-05T02:00:21.706Z,4.60
2023-02-05T02:02:49.664Z,6.90
2023-02-05T02:05:18.211Z,8.70
2023-02-05T02:07:46.398Z,8.00
2023-02-05T02:10:15.517Z,5.80
2023-02-05T02:12:44.397Z,5.30
2023-02-05T02:15:15.454Z,4.70
2023-02-05T02:17:45.978Z,6.30
2023-02-05T02:20:18.764Z,6.00
2023-02-05T02:22:55.959Z,5.00
2023-02-05T02:25:33.283Z,6.80
2023-02-05T02:28:02.876Z,5.80
2023-02-05T02:30:35.733Z,6.10
2023-02-05T02:33:15.324Z,6.70
2023-02-05T02:36:01.273Z,5.60
2023-02-05T02:38:35.889Z,5.10
2023-02-05T02:41:10.809Z,6.50
2023-02-05T02:44:05.914Z,6.20
2023-02-05T02:46:38.816Z,6.90
2023-02-05T02:49:08.622Z,9.10
2023-02-05T02:51:36.789Z,5.20
2023-02-05T02:54:08.044Z,8.20
2023-02-05T02:56:37.645Z,6.30
2023-02-05T02:59:10.290Z,7.40
2023-02-05T03:01:42.580Z,6.60
2023-02-05T03:04:14.948Z,4.50
2023-02-05T03:06:45.256Z,7.60
2023-02-05T03:09:22.793Z,5.90
2023-02-05T03:11:51.164Z,8.90
2023-02-05T03:14:19.719Z,6.60
2023-02-05T03:16:47.774Z,5.60
2023-02-05T03:19:16.536Z,8.10
2023-02-05T03:21:51.478Z,8.80
2023-02-05T03:24:19.628Z,6.70
2023-02-05T03:26:49.529Z,8.10
2023-02-05T03:32:34.118Z,5.10
2023-02-05T03:35:08.222Z,6.70
2023-02-05T03:37:52.269Z,6.20
2023-02-05T03:40:20.684Z,8.40
2023-02-05T03:43:04.240Z,6.80
2023-02-05T03:45:35.238Z,6.10
2023-02-05T03:48:41.009Z,5.40
2023-02-05T03:51:33.218Z,6.40
2023-02-05T03:54:07.080Z,7.90
2023-02-05T03:56:56.931Z,8.30
2023-02-05T03:59:25.309Z,7.40
2023-02-05T04:01:53.776Z,6.50
2023-02-05T04:04:22.097Z,7.90
2023-02-05T04:06:52.773Z,7.20
2023-02-05T04:09:20.907Z,7.90
2023-02-05T04:11:48.798Z,6.60
2023-02-05T04:14:18.460Z,9.20
2023-02-05T04:16:47.116Z,7.40
2023-02-05T04:19:15.400Z,6.80
2023-02-05T04:21:43.654Z,8.40
2023-02-05T04:24:12.476Z,5.80
2023-02-05T04:26:40.640Z,6.60
2023-02-05T04:29:09.298Z,6.10
2023-02-05T04:31:42.969Z,7.20
2023-02-05T04:34:12.164Z,8.50
2023-02-05T04:36:41.159Z,7.30
2023-02-05T04:39:09.295Z,6.50
2023-02-05T04:41:37.949Z,7.70
2023-02-05T04:44:06.855Z,7.70
2023-02-05T04:46:35.873Z,8.00
2023-02-05T04:49:04.050Z,6.70
2023-02-05T04:51:32.880Z,7.00
2023-02-05T04:54:00.947Z,8.50
2023-02-05T04:56:29.179Z,8.10
2023-02-05T04:58:57.432Z,9.80
2023-02-05T05:01:25.825Z,8.90
2023-02-05T05:03:53.978Z,7.40
2023-02-05T05:06:21.951Z,8.00
2023-02-05T05:08:49.961Z,8.60
2023-02-05T05:11:18.958Z,7.20
2023-02-05T05:13:49.447Z,8.80
2023-02-05T05:16:17.950Z,8.30
2023-02-05T05:18:46.091Z,11.70
2023-02-05T05:21:14.307Z,7.30
2023-02-05T05:23:42.845Z,8.40
2023-02-05T05:26:11.701Z,7.70
2023-02-05T05:28:39.871Z,9.10
2023-02-05T05:31:16.942Z,10.90
2023-02-05T05:33:45.783Z,9.60
2023-02-05T05:36:14.465Z,8.20
2023-02-05T05:38:42.643Z,8.60
2023-02-05T05:41:41.682Z,9.80
2023-02-05T05:44:09.959Z,13.20
2023-02-05T05:46:41.918Z,8.70
2023-02-05T05:49:10.176Z,11.00
2023-02-05T05:51:38.655Z,9.50
2023-02-05T05:54:06.721Z,11.00
2023-02-05T05:56:36.361Z,8.40
2023-02-05T05:59:04.631Z,9.60
2023-02-05T06:01:32.792Z,11.00
2023-02-05T06:04:03.628Z,10.90
2023-02-05T06:06:32.184Z,11.40
2023-02-05T06:09:00.382Z,9.80
2023-02-05T06:11:28.704Z,10.10
2023-02-05T06:13:57.174Z,11.40
2023-02-05T06:16:25.775Z,10.00
2023-02-05T06:18:55.298Z,10.10
2023-02-05T06:21:24.054Z,10.10
2023-02-05T06:23:55.608Z,11.30
2023-02-05T06:26:23.570Z,9.80
2023-02-05T06:28:51.522Z,12.10
2023-02-05T06:31:19.545Z,11.10
2023-02-05T06:33:49.478Z,11.20
2023-02-05T06:36:17.773Z,13.40
2023-02-05T06:38:45.759Z,11.60
2023-02-05T06:41:13.784Z,10.80
2023-02-05T06:43:42.883Z,10.40
2023-02-05T06:46:11.994Z,11.10
2023-02-05T06:48:40.008Z,10.20
2023-02-05T06:51:08.092Z,11.90
2023-02-05T06:53:36.098Z,12.60
2023-02-05T06:56:04.857Z,12.20
2023-02-05T06:58:32.837Z,10.40
2023-02-05T07:01:02.018Z,10.20
2023-02-05T07:03:30.118Z,13.20
2023-02-05T07:06:05.052Z,11.00
2023-02-05T07:08:33.480Z,10.50
2023-02-05T07:11:02.267Z,11.20
2023-02-05T07:13:33.260Z,13.40
2023-02-05T07:16:05.527Z,11.00
2023-02-05T07:18:33.918Z,11.80
2023-02-05T07:21:08.978Z,12.10
2023-02-05T07:23:37.532Z,10.60
2023-02-05T07:26:07.570Z,12.20
2023-02-05T07:28:35.759Z,11.90
2023-02-05T07:31:06.308Z,10.90
2023-02-05T07:33:37.073Z,11.80
2023-02-05T07:36:06.834Z,10.10
2023-02-05T07:38:36.361Z,14.90
2023-02-05T07:41:09.378Z,15.80
2023-02-05T07:43:37.693Z,11.50
2023-02-05T07:46:07.475Z,11.70
2023-02-05T07:48:35.747Z,11.20
2023-02-05T07:51:04.718Z,10.80
2023-02-05T07:53:32.922Z,11.50
2023-02-05T07:56:04.787Z,8.20
2023-02-05T07:58:33.089Z,12.70
2023-02-05T08:03:43.433Z,9.60
2023-02-05T08:06:14.010Z,13.10
2023-02-05T08:08:42.482Z,11.20
2023-02-05T08:11:14.204Z,13.00
2023-02-05T08:13:43.329Z,12.30
2023-02-05T08:16:15.810Z,10.20
2023-02-05T08:21:16.243Z,16.40
2023-02-05T08:23:44.358Z,10.70
2023-02-05T08:26:13.474Z,10.70
2023-02-05T08:28:41.840Z,13.60
2023-02-05T08:31:15.644Z,11.40
2023-02-05T08:33:44.124Z,11.40
2023-02-05T08:36:12.267Z,10.80
2023-02-05T08:38:41.052Z,10.30
2023-02-05T08:41:12.816Z,17.40
2023-02-05T08:43:41.962Z,8.80
2023-02-05T08:46:10.491Z,11.10
2023-02-05T08:48:38.796Z,11.30
2023-02-05T08:51:09.950Z,14.10
2023-02-05T08:53:38.143Z,12.00
2023-02-05T08:56:06.837Z,8.70
2023-02-05T08:58:34.926Z,11.40
2023-02-05T09:01:05.779Z,10.30
2023-02-05T09:03:34.114Z,11.50
2023-02-05T09:06:05.351Z,13.50
2023-02-05T09:08:33.366Z,10.50
2023-02-05T09:11:01.602Z,10.60
2023-02-05T09:13:30.002Z,13.00
2023-02-05T09:16:00.854Z,11.20
2023-02-05T09:18:29.100Z,12.40
2023-02-05T09:20:57.584Z,11.00
2023-02-05T09:23:26.070Z,8.60
2023-02-05T09:25:54.349Z,13.00
2023-02-05T09:28:22.880Z,11.40
2023-02-05T09:30:51.773Z,11.90
2023-02-05T09:33:19.957Z,13.20
2023-02-05T09:35:48.079Z,10.90
2023-02-05T09:38:17.976Z,16.20
2023-02-05T09:41:10.500Z,12.00
2023-02-05T09:43:57.133Z,14.70
2023-02-05T09:46:40.436Z,15.70
2023-02-05T09:49:18.760Z,14.30
2023-02-05T09:51:51.820Z,10.30
2023-02-05T09:54:26.056Z,11.00
2023-02-05T09:56:56.924Z,11.00
2023-02-05T09:59:26.536Z,10.40
2023-02-05T10:01:58.926Z,14.30
2023-02-05T10:04:27.874Z,14.60
2023-02-05T10:06:55.899Z,12.10
2023-02-05T10:09:54.437Z,11.10
2023-02-05T10:12:41.667Z,10.90
2023-02-05T10:15:29.315Z,9.00
2023-02-05T10:18:18.826Z,11.30
2023-02-05T10:20:56.057Z,9.40
2023-02-05T10:23:50.839Z,11.30
2023-02-05T10:26:19.015Z,9.80
2023-02-05T10:29:03.875Z,9.80
2023-02-05T10:31:36.937Z,9.40
2023-02-05T10:34:30.752Z,18.10
2023-02-05T10:36:58.755Z,11.60
2023-02-05T10:39:29.123Z,8.80
2023-02-05T10:42:17.227Z,10.30
2023-02-05T10:44:46.588Z,10.50
2023-02-05T10:47:29.002Z,9.80
2023-02-05T10:50:01.340Z,12.80
2023-02-05T10:52:29.446Z,11.60
2023-02-05T10:54:57.829Z,12.50
2023-02-05T10:57:25.976Z,12.70
2023-02-05T10:59:56.215Z,10.10
2023-02-05T11:02:38.324Z,11.40
2023-02-05T11:05:27.843Z,10.30
2023-02-05T11:07:56.362Z,11.30
2023-02-05T11:10:26.160Z,13.70
2023-02-05T11:12:56.613Z,10.80
2023-02-05T11:15:29.627Z,14.00
2023-02-05T11:18:05.244Z,12.30
2023-02-05T11:20:35.662Z,14.60
2023-02-05T11:23:18.550Z,16.90
2023-02-05T11:25:57.989Z,12.50
2023-02-05T11:28:29.802Z,21.40
2023-02-05T11:31:04.677Z,25.70
2023-02-05T11:33:33.503Z,19.00
2023-02-05T11:36:03.946Z,13.90
2023-02-05T11:38:46.705Z,22.20
2023-02-05T11:41:52.060Z,22.90
2023-02-05T11:44:25.900Z,17.80
2023-02-05T11:46:56.985Z,23.10
2023-02-05T11:49:31.370Z,24.40
2023-02-05T11:52:02.462Z,19.00
2023-02-05T11:54:32.496Z,32.20
2023-02-05T11:57:17.489Z,38.60
2023-02-05T11:59:54.758Z,27.40
2023-02-05T12:02:28.850Z,24.40
2023-02-05T12:05:31.282Z,28.00
2023-02-05T12:08:07.084Z,22.30
2023-02-05T12:11:01.328Z,26.10
2023-02-05T12:13:39.326Z,30.20
2023-02-05T12:16:47.638Z,17.90
2023-02-05T12:19:31.163Z,18.60
2023-02-05T12:22:24.023Z,23.30
2023-02-05T12:24:55.270Z,20.50
2023-02-05T12:27:50.284Z,29.70
2023-02-05T12:30:44.682Z,33.70
2023-02-05T12:33:35.160Z,36.70
2023-02-05T12:36:22.067Z,43.10
2023-02-05T12:39:15.253Z,52.00
2023-02-05T12:41:55.143Z,117.10
2023-02-05T12:44:28.256Z,78.80
2023-02-05T12:47:19.378Z,163.80
2023-02-05T12:52:45.925Z,68.30
2023-02-05T12:55:29.487Z,64.30
2023-02-05T12:58:04.241Z,59.50
2023-02-05T13:00:34.429Z,47.20
2023-02-05T13:03:17.234Z,26.10
2023-02-05T13:05:48.267Z,17.00
2023-02-05T13:08:20.416Z,16.40
2023-02-05T13:10:55.341Z,58.20
2023-02-05T13:13:32.256Z,38.10
2023-02-05T13:16:14.895Z,57.00
2023-02-05T13:18:54.501Z,62.20
2023-02-05T13:21:41.727Z,42.30
2023-02-05T13:24:31.504Z,24.30
2023-02-05T13:27:18.860Z,27.10
2023-02-05T13:29:51.717Z,24.60
2023-02-05T13:32:21.934Z,19.10
2023-02-05T13:34:54.934Z,22.40
2023-02-05T13:38:01.558Z,19.80
2023-02-05T13:40:36.148Z,23.50
2023-02-05T13:43:20.060Z,24.00
2023-02-05T13:46:10.626Z,21.20
2023-02-05T13:48:52.624Z,18.00
2023-02-05T13:51:39.059Z,20.10
2023-02-05T13:54:24.273Z,20.60
2023-02-05T13:56:58.767Z,20.30
2023-02-05T13:59:40.962Z,20.50
2023-02-05T14:02:39.623Z,64.00
2023-02-05T14:05:08.097Z,68.20
2023-02-05T14:07:50.035Z,79.80
2023-02-05T14:10:27.944Z,102.30
2023-02-05T14:13:33.776Z,67.90
2023-02-05T14:16:38.014Z,96.80
2023-02-05T14:19:21.990Z,75.00
2023-02-05T14:22:00.063Z,59.10
2023-02-05T14:24:45.240Z,43.20
2023-02-05T14:27:39.869Z,29.30
2023-02-05T14:30:30.727Z,20.90
2023-02-05T14:33:05.729Z,19.40
2023-02-05T14:35:40.791Z,20.10
2023-02-05T14:38:32.201Z,18.70
2023-02-05T14:41:10.688Z,19.30
2023-02-05T14:43:41.062Z,19.00
2023-02-05T14:46:27.216Z,21.90
2023-02-05T14:49:00.022Z,18.20
2023-02-05T14:51:35.171Z,19.40
2023-02-05T14:54:04.779Z,22.60
2023-02-05T14:56:46.888Z,45.50
2023-02-05T14:59:29.853Z,33.50
2023-02-05T15:02:00.070Z,32.70
2023-02-05T15:04:30.139Z,56.80
2023-02-05T15:06:59.453Z,46.20
2023-02-05T15:09:39.189Z,30.60
2023-02-05T15:12:07.868Z,27.50
2023-02-05T15:14:51.918Z,23.50
2023-02-05T15:17:29.537Z,22.30
2023-02-05T15:20:00.623Z,21.50
2023-02-05T15:22:33.799Z,20.50
2023-02-05T15:25:10.508Z,23.70
2023-02-05T15:27:46.972Z,19.40
2023-02-05T15:30:18.423Z,20.70
2023-02-05T15:32:54.175Z,25.00
2023-02-05T15:35:24.914Z,20.80
2023-02-05T15:40:27.452Z,19.70
2023-02-05T15:42:58.317Z,22.70
2023-02-05T15:45:32.345Z,24.80
2023-02-05T15:48:16.314Z,23.00
2023-02-05T15:50:49.796Z,22.50
2023-02-05T15:53:35.916Z,23.70
2023-02-05T15:56:21.753Z,20.10
2023-02-05T15:59:11.994Z,29.70
2023-02-05T16:02:06.559Z,23.80
2023-02-05T16:04:37.624Z,27.20
2023-02-05T16:09:48.412Z,43.90
2023-02-05T16:12:16.580Z,30.80
2023-02-05T16:14:44.939Z,31.50
2023-02-05T16:17:18.435Z,27.50
2023-02-05T16:19:52.966Z,23.20
2023-02-05T16:22:37.581Z,25.00
2023-02-05T16:25:13.235Z,32.10
2023-02-05T16:27:44.902Z,19.80
2023-02-05T16:30:33.463Z,31.10
2023-02-05T16:33:02.469Z,22.00
2023-02-05T16:35:36.605Z,22.40
2023-02-05T16:38:09.199Z,23.40
2023-02-05T16:40:43.306Z,24.70
2023-02-05T16:54:44.569Z,21.60
2023-02-05T16:57:14.420Z,26.40
2023-02-05T16:59:50.284Z,20.90
2023-02-05T17:02:39.642Z,20.00
2023-02-05T17:05:28.220Z,25.20
2023-02-05T17:08:02.121Z,23.20
2023-02-05T17:10:30.864Z,20.00
2023-02-05T17:13:05.382Z,21.90
2023-02-05T17:15:40.303Z,22.60
2023-02-05T17:18:24.158Z,24.60
2023-02-05T17:21:17.725Z,25.50
2023-02-05T17:23:50.364Z,35.40
2023-02-05T17:26:18.539Z,25.90
2023-02-05T17:28:52.552Z,36.40
2023-02-05T17:31:25.109Z,30.40
2023-02-05T17:33:58.047Z,24.90
2023-02-05T17:36:26.528Z,19.90
2023-02-05T17:38:54.623Z,21.60
2023-02-05T17:41:43.165Z,18.80
2023-02-05T17:44:15.857Z,25.90
2023-02-05T17:46:44.530Z,26.20
2023-02-05T17:49:13.217Z,25.30
2023-02-05T17:51:42.726Z,22.40
2023-02-05T17:54:17.016Z,22.40
2023-02-05T17:56:46.029Z,22.20
2023-02-05T17:59:15.857Z,26.70
2023-02-05T18:01:44.853Z,25.70
2023-02-05T18:04:13.132Z,24.90
2023-02-05T18:06:42.052Z,27.10
2023-02-05T18:09:10.371Z,25.50
2023-02-05T18:11:39.561Z,25.20
2023-02-05T18:14:08.884Z,29.60
2023-02-05T18:16:37.344Z,21.90
2023-02-05T18:19:05.829Z,25.40
2023-02-05T18:21:36.253Z,23.80
2023-02-05T18:24:04.733Z,22.90
2023-02-05T18:26:34.555Z,19.40
2023-02-05T18:29:03.039Z,24.00
2023-02-05T18:31:46.392Z,25.10
2023-02-05T18:34:14.683Z,20.00
2023-02-05T18:36:43.322Z,19.20
2023-02-05T18:39:11.623Z,25.00
2023-02-05T18:41:41.534Z,23.30
2023-02-05T18:44:09.794Z,22.70
2023-02-05T18:46:38.686Z,28.40
2023-02-05T18:49:07.171Z,24.70
2023-02-05T18:51:37.476Z,28.80
2023-02-05T18:54:06.996Z,24.30
2023-02-05T18:56:35.886Z,28.50
2023-02-05T18:59:06.424Z,27.20
2023-02-05T19:01:38.685Z,26.30
2023-02-05T19:04:08.569Z,23.00
2023-02-05T19:06:37.036Z,24.00
2023-02-05T19:09:05.275Z,22.90
2023-02-05T19:11:40.942Z,22.20
2023-02-05T19:14:11.260Z,21.50
2023-02-05T19:16:39.554Z,21.10
2023-02-05T19:19:07.938Z,20.70
2023-02-05T19:21:36.279Z,19.40
2023-02-05T19:24:10.060Z,20.00
2023-02-05T19:26:39.256Z,21.00
2023-02-05T19:29:09.373Z,16.70
2023-02-05T19:31:38.020Z,21.40
2023-02-05T19:34:06.647Z,18.50
2023-02-05T19:36:35.121Z,18.70
2023-02-05T19:39:04.892Z,21.80
2023-02-05T19:41:34.047Z,16.90
2023-02-05T19:44:04.436Z,18.30
2023-02-05T19:46:35.271Z,17.30
2023-02-05T19:49:05.745Z,18.00
2023-02-05T19:51:33.905Z,21.50
2023-02-05T19:54:06.719Z,15.80
2023-02-05T19:56:38.238Z,18.80
2023-02-05T19:59:07.031Z,19.50
2023-02-05T20:01:36.729Z,20.00
2023-02-05T20:04:19.232Z,18.00
2023-02-05T20:06:47.292Z,17.70
2023-02-05T20:09:16.112Z,16.10
2023-02-05T20:11:48.762Z,17.20
2023-02-05T20:14:17.016Z,20.20
2023-02-05T20:16:45.733Z,15.90
2023-02-05T20:19:15.192Z,18.30
2023-02-05T20:21:43.935Z,15.20
2023-02-05T20:24:12.499Z,16.30
2023-02-05T20:26:40.927Z,18.90
2023-02-05T20:29:30.485Z,20.30
2023-02-05T20:32:00.793Z,15.50
2023-02-05T20:34:31.979Z,18.50
2023-02-05T20:37:04.618Z,23.20
2023-02-05T20:39:35.043Z,19.60
2023-02-05T20:42:03.332Z,14.60
2023-02-05T20:44:33.870Z,17.00
2023-02-05T20:47:10.320Z,20.10
2023-02-05T20:49:43.035Z,20.00
2023-02-05T20:52:11.617Z,18.60
2023-02-05T20:54:40.586Z,18.90
2023-02-05T20:57:09.476Z,17.90
2023-02-05T20:59:38.997Z,21.00
2023-02-05T21:02:07.578Z,17.50
2023-02-05T21:04:36.934Z,16.30
2023-02-05T21:07:04.912Z,20.40
2023-02-05T21:09:33.033Z,17.20
2023-02-05T21:12:01.200Z,19.90
2023-02-05T21:14:30.677Z,23.10
2023-02-05T21:16:59.912Z,21.50
2023-02-05T21:19:28.873Z,21.70
2023-02-05T21:21:57.452Z,22.60
2023-02-05T21:24:25.625Z,19.00
2023-02-05T21:26:54.517Z,18.70
2023-02-05T21:29:22.802Z,22.60
2023-02-05T21:31:53.361Z,20.30
2023-02-05T21:34:23.519Z,19.20
2023-02-05T21:36:52.753Z,22.20
2023-02-05T21:39:21.576Z,17.30
2023-02-05T21:41:54.397Z,18.20
2023-02-05T21:44:23.231Z,20.10
2023-02-05T21:46:53.421Z,19.20
2023-02-05T21:49:21.606Z,18.70
2023-02-05T21:51:50.589Z,18.80
2023-02-05T21:54:20.812Z,19.50
2023-02-05T21:56:48.705Z,15.70
2023-02-05T21:59:16.649Z,18.90
2023-02-05T22:01:44.841Z,17.80
2023-02-05T22:04:14.724Z,17.50
2023-02-05T22:06:43.757Z,14.70
2023-02-05T22:09:16.773Z,18.60
2023-02-05T22:11:44.901Z,17.70
2023-02-05T22:14:13.287Z,22.60
2023-02-05T22:16:41.992Z,17.80
2023-02-05T22:19:13.498Z,17.60
2023-02-05T22:21:42.205Z,16.80
2023-02-05T22:24:15.106Z,20.00
2023-02-05T22:26:43.880Z,19.90
2023-02-05T22:29:13.741Z,15.50
2023-02-05T22:31:42.335Z,22.10
2023-02-05T22:34:10.975Z,18.90
2023-02-05T22:36:39.339Z,19.50
2023-02-05T22:39:07.394Z,23.70
2023-02-05T22:41:37.725Z,19.00
2023-02-05T22:44:06.337Z,21.10
2023-02-05T22:46:38.062Z,18.30
2023-02-05T22:49:06.149Z,17.40
2023-02-05T22:51:37.442Z,18.50
2023-02-05T22:54:06.131Z,18.50
2023-02-05T22:56:35.866Z,23.70
2023-02-05T22:59:03.998Z,18.20
2023-02-05T23:01:34.062Z,17.70
2023-02-05T23:04:03.284Z,18.30
2023-02-05T23:06:32.999Z,18.10
2023-02-05T23:09:05.976Z,17.30
2023-02-05T23:11:35.096Z,18.30
2023-02-05T23:14:03.718Z,20.50
2023-02-05T23:16:34.195Z,18.10
2023-02-05T23:19:04.676Z,19.00
2023-02-05T23:21:38.283Z,16.30
2023-02-05T23:24:06.741Z,18.50
2023-02-05T23:26:39.876Z,21.10
2023-02-05T23:29:09.051Z,21.20
2023-02-05T23:31:37.801Z,21.60
2023-02-05T23:34:06.001Z,19.40
2023-02-05T23:36:34.721Z,22.10
2023-02-05T23:39:03.206Z,21.30
2023-02-05T23:41:36.995Z,20.00
2023-02-05T23:44:13.200Z,23.10
2023-02-05T23:46:42.343Z,20.20
2023-02-05T23:49:10.549Z,21.00
2023-02-05T23:51:40.367Z,23.30
2023-02-05T23:54:09.634Z,20.40
2023-02-05T23:56:38.074Z,19.80
2023-02-05T23:59:07.208Z,24.00
